メインページ
METAR-TAF:

METAR-TAF

空港 :

大島空港

新居大島, 日本

緯度: 34-47N, 経度: 139-22E, 海抜: 38m

現時点の気象観測

当レポートは3時間58分前の08:00(UTC)に作成
の風 8kt、北東から南東の間で変化する
気温 17°C
湿度 55%
気圧 1018 hPa
視程10km以上
高度3000ftの雲はほとんどない
千切れ雲あり

METAR: RJTO 200800Z 10008KT 050V140 9999 FEW030 BKN/// 17/08 Q1018

時間: 20:58 (11:58 UTC)


TAF: 見つかりません

4,000以上の空港の気象観測と天気予報(METAR報とTAF報)

利用可能な観測所は地図上に黄色い丸と赤い丸で示す。

丸の上にカーソルを重ねると観測所名を参照できる。

次にクリックすると気象観測と天気予報を参照できる。

マップの切り替え:黒色「×」印の緑ボタンをクリックして拡大、「-」印の緑ボタンをクリックして縮小、緑色の三角印をクリックして隣りの地図に切り替え


METAR-TAF: